Time;durP1;ratioP1;P1;durP2;ratioP2;P2;SDS_P1;SDS_P2;PMS_P1;PMS_P2;Temp;Humidity;BMP_temperature;BMP_pressure;BME280_temperature;BME280_humidity;BME280_pressure;Samples;Min_cycle;Max_cycle;Signal;HPM_P1;HPM_P2
2022/10/20 00:00:53;;;;;;;15.82;11.07;;;;;;;11.35;100.00;101122.47;5004544;28;20106;-77
2022/10/20 00:03:20;;;;;;;18.48;11.32;;;;;;;11.42;100.00;101113.03;5003577;28;20403;-78
2022/10/20 00:05:46;;;;;;;16.83;10.93;;;;;;;11.47;100.00;101116.03;5002890;28;20145;-78
2022/10/20 00:08:15;;;;;;;18.92;11.65;;;;;;;11.46;100.00;101106.53;5003990;28;20133;-77
2022/10/20 00:10:42;;;;;;;23.13;11.68;;;;;;;11.43;100.00;101098.97;5002808;28;20438;-77
2022/10/20 00:13:08;;;;;;;14.65;10.88;;;;;;;11.48;100.00;101095.91;5002951;28;20125;-78
2022/10/20 00:15:35;;;;;;;22.92;11.50;;;;;;;11.47;100.00;101089.84;5000904;28;20073;-78
2022/10/20 00:18:01;;;;;;;20.52;10.73;;;;;;;11.48;100.00;101094.09;5001232;28;20069;-78
2022/10/20 00:20:28;;;;;;;17.02;11.20;;;;;;;11.46;100.00;101088.19;5003464;28;20110;-78
2022/10/20 00:22:55;;;;;;;20.58;11.52;;;;;;;11.47;100.00;101095.06;5003429;28;20042;-78
2022/10/20 00:25:23;;;;;;;20.35;11.18;;;;;;;11.44;100.00;101090.13;5002922;28;20540;-79
2022/10/20 00:27:49;;;;;;;21.20;11.80;;;;;;;11.35;100.00;101091.03;5002548;28;20092;-75
2022/10/20 00:30:16;;;;;;;17.27;10.75;;;;;;;11.39;100.00;101086.31;5001526;28;20129;-79
2022/10/20 00:32:42;;;;;;;16.85;10.40;;;;;;;11.40;100.00;101080.94;5015918;23;20050;-80
2022/10/20 00:35:09;;;;;;;18.67;10.77;;;;;;;11.38;100.00;101069.78;4996353;28;20125;-78
2022/10/20 00:37:36;;;;;;;17.52;10.55;;;;;;;11.36;100.00;101070.88;4996950;28;20458;-79
2022/10/20 00:40:02;;;;;;;15.10;10.88;;;;;;;11.35;100.00;101070.06;4996948;28;20101;-79
2022/10/20 00:42:30;;;;;;;17.83;11.20;;;;;;;11.36;100.00;101063.03;5000701;28;20081;-79
2022/10/20 00:45:00;;;;;;;18.58;11.18;;;;;;;11.14;100.00;101035.50;4995066;28;20118;-79
2022/10/20 00:47:38;;;;;;;14.18;10.73;;;;;;;11.28;100.00;101058.56;4978619;28;20153;-79
2022/10/20 00:50:10;;;;;;;14.35;10.43;;;;;;;11.23;100.00;101048.53;4976475;28;20046;-79
2022/10/20 00:52:37;;;;;;;16.45;10.60;;;;;;;11.20;100.00;101046.22;4975755;28;20050;-80
2022/10/20 00:55:06;;;;;;;15.90;11.18;;;;;;;11.21;100.00;101060.13;4976842;28;20054;-79
2022/10/20 00:57:34;;;;;;;16.92;10.85;;;;;;;11.16;100.00;101057.97;4976009;28;20553;-78
2022/10/20 01:00:01;;;;;;;17.63;10.98;;;;;;;11.14;100.00;101062.53;4979232;28;20061;-81
2022/10/20 01:02:28;;;;;;;18.88;11.55;;;;;;;11.09;100.00;101056.09;4996068;28;20058;-79
2022/10/20 01:04:54;;;;;;;15.82;10.30;;;;;;;11.06;100.00;101049.34;4990896;28;20130;-77
2022/10/20 01:07:21;;;;;;;18.27;10.75;;;;;;;11.10;100.00;101039.41;4976021;28;20112;-79
2022/10/20 01:09:48;;;;;;;16.27;10.50;;;;;;;11.16;100.00;101033.56;4974517;28;20062;-77
2022/10/20 01:12:24;;;;;;;12.73;10.32;;;;;;;11.16;100.00;101025.72;4975965;28;20502;-79
2022/10/20 01:15:01;;;;;;;17.15;10.57;;;;;;;11.16;100.00;101029.16;4980278;28;20099;-78
2022/10/20 01:17:38;;;;;;;17.45;10.63;;;;;;;11.10;100.00;101032.38;4992469;28;20051;-80
2022/10/20 01:20:54;;;;;;;13.73;10.68;;;;;;;11.06;100.00;101017.09;4993922;28;20054;-79
2022/10/20 01:23:49;;;;;;;15.45;11.23;;;;;;;11.10;100.00;101014.03;4994802;28;20100;-78
2022/10/20 01:26:37;;;;;;;16.55;10.52;;;;;;;11.07;100.00;101016.94;4979991;28;20055;-78
2022/10/20 01:29:12;;;;;;;17.77;11.00;;;;;;;11.10;100.00;101013.22;4975228;28;20405;-79
2022/10/20 01:31:43;;;;;;;18.05;11.13;;;;;;;11.13;100.00;101018.16;4989633;28;20429;-78
2022/10/20 01:34:17;;;;;;;16.42;10.43;;;;;;;11.12;100.00;101024.34;4993881;28;20047;-78
2022/10/20 01:36:49;;;;;;;15.70;10.32;;;;;;;11.20;100.00;101016.56;4988093;28;20133;-77
2022/10/20 01:39:21;;;;;;;15.07;10.60;;;;;;;11.21;100.00;100997.28;4994150;28;20140;-78
2022/10/20 01:41:53;;;;;;;18.00;10.52;;;;;;;11.19;100.00;100992.19;4992804;28;20132;-79
2022/10/20 01:44:25;;;;;;;14.80;10.00;;;;;;;11.20;100.00;100990.38;4994861;28;20129;-78
2022/10/20 01:46:53;;;;;;;17.85;10.57;;;;;;;11.20;100.00;100988.59;4980415;28;20093;-77
2022/10/20 01:49:20;;;;;;;18.15;10.70;;;;;;;11.19;100.00;100979.09;4975435;28;20593;-79
2022/10/20 01:51:46;;;;;;;16.02;10.82;;;;;;;11.19;100.00;100970.41;4979260;28;20078;-79
2022/10/20 01:54:21;;;;;;;15.55;10.23;;;;;;;11.13;100.00;100989.34;4975669;28;20051;-79
2022/10/20 01:57:00;;;;;;;15.05;10.30;;;;;;;11.14;100.00;100968.25;4975223;28;20557;-79
2022/10/20 01:59:38;;;;;;;17.67;10.82;;;;;;;11.07;100.00;100961.94;4974329;28;20055;-79
2022/10/20 02:02:28;;;;;;;19.75;10.25;;;;;;;11.04;100.00;100967.50;4975890;28;20481;-78
2022/10/20 02:05:10;;;;;;;14.93;10.13;;;;;;;11.06;99.92;100965.53;4975874;28;20047;-80
2022/10/20 02:07:38;;;;;;;14.43;10.80;;;;;;;11.03;100.00;100954.53;4975721;28;20130;-79
2022/10/20 02:10:12;;;;;;;15.30;10.95;;;;;;;11.05;99.71;100965.69;4986359;28;20092;-78
2022/10/20 02:12:41;;;;;;;14.30;10.38;;;;;;;11.05;99.54;100949.97;4997814;28;20137;-78
2022/10/20 02:15:14;;;;;;;17.80;10.35;;;;;;;11.05;99.41;100955.22;4992633;28;20153;-78
2022/10/20 02:17:41;;;;;;;14.43;10.32;;;;;;;11.03;99.37;100933.59;4993333;28;20481;-78
2022/10/20 02:20:10;;;;;;;15.75;11.00;;;;;;;11.00;99.53;100939.97;4993948;28;20050;-80
2022/10/20 02:22:39;;;;;;;17.48;10.23;;;;;;;11.02;99.11;100934.56;4996485;28;20053;-79
2022/10/20 02:25:06;;;;;;;14.18;10.63;;;;;;;11.00;98.90;100931.28;4989704;28;20185;-79
2022/10/20 02:27:40;;;;;;;19.75;11.00;;;;;;;10.97;99.01;100932.41;4977236;28;20133;-79
2022/10/20 02:30:12;;;;;;;16.98;10.60;;;;;;;10.96;99.16;100928.13;4976930;28;20058;-79
2022/10/20 02:32:41;;;;;;;17.90;10.60;;;;;;;10.98;99.16;100932.25;4996047;28;20146;-79
2022/10/20 02:35:13;;;;;;;16.02;10.60;;;;;;;10.96;98.83;100933.38;4990947;28;20089;-79
2022/10/20 02:37:43;;;;;;;13.73;10.07;;;;;;;10.93;98.89;100929.25;4979621;28;20429;-79
2022/10/20 02:40:11;;;;;;;14.75;10.73;;;;;;;10.94;98.89;100920.44;4978467;28;20055;-80
2022/10/20 02:42:39;;;;;;;19.50;11.13;;;;;;;10.93;98.78;100925.81;4979715;28;20053;-79
2022/10/20 02:45:07;;;;;;;16.88;11.25;;;;;;;10.99;98.76;100919.97;4977214;28;20556;-77
2022/10/20 02:47:35;;;;;;;16.45;9.70;;;;;;;10.97;98.51;100906.22;4989842;28;20129;-77
2022/10/20 02:50:02;;;;;;;17.23;10.25;;;;;;;10.91;98.66;100893.72;4992148;28;20137;-78
2022/10/20 02:52:28;;;;;;;17.05;10.77;;;;;;;10.90;99.05;100913.84;4993740;28;20050;-78
2022/10/20 02:54:55;;;;;;;18.48;11.02;;;;;;;10.89;98.80;100909.59;4982257;28;20137;-78
2022/10/20 02:57:22;;;;;;;16.35;10.13;;;;;;;10.90;98.47;100915.66;4975051;28;20054;-78
2022/10/20 02:59:48;;;;;;;17.58;10.88;;;;;;;10.91;98.36;100915.50;4978401;28;20051;-79
2022/10/20 03:02:15;;;;;;;18.02;10.50;;;;;;;10.94;98.20;100909.13;4998210;28;20082;-78
2022/10/20 03:04:43;;;;;;;13.77;9.50;;;;;;;10.91;98.37;100912.88;4997805;28;20400;-79
2022/10/20 03:07:10;;;;;;;18.23;11.18;;;;;;;10.89;98.42;100906.16;4996221;28;20046;-78
2022/10/20 03:09:36;;;;;;;13.15;9.98;;;;;;;10.83;98.56;100896.31;4992809;28;20053;-77
2022/10/20 03:12:03;;;;;;;14.60;10.85;;;;;;;10.86;98.31;100896.00;4984249;28;20058;-76
2022/10/20 03:14:30;;;;;;;16.70;9.75;;;;;;;10.80;98.54;100907.91;4989948;28;20070;-78
2022/10/20 03:16:56;;;;;;;14.60;10.52;;;;;;;10.87;98.46;100903.69;4974626;28;20484;-78
2022/10/20 03:19:23;;;;;;;13.40;9.80;;;;;;;10.82;98.57;100905.13;4972658;28;20145;-78
2022/10/20 03:21:51;;;;;;;13.68;10.57;;;;;;;10.79;98.52;100897.59;4985844;28;20062;-78
2022/10/20 03:24:18;;;;;;;14.05;10.27;;;;;;;10.81;98.32;100891.22;4992324;28;20050;-78
2022/10/20 03:26:44;;;;;;;19.60;10.23;;;;;;;10.83;98.43;100872.75;4992615;28;20133;-78
2022/10/20 03:29:11;;;;;;;16.45;9.63;;;;;;;10.84;98.24;100883.06;4991839;28;20096;-77
2022/10/20 03:31:37;;;;;;;12.05;10.15;;;;;;;10.85;98.21;100866.41;4975252;28;20082;-78
2022/10/20 03:34:04;;;;;;;14.07;10.77;;;;;;;10.86;97.74;100883.75;4973011;28;20138;-78
2022/10/20 03:36:31;;;;;;;13.68;9.45;;;;;;;10.85;97.43;100882.09;4972855;28;20601;-79
2022/10/20 03:38:59;;;;;;;16.30;10.48;;;;;;;10.86;97.79;100875.06;4977169;28;20051;-79
2022/10/20 03:41:25;;;;;;;15.48;9.52;;;;;;;10.81;97.75;100857.19;4995756;28;20073;-78
2022/10/20 03:43:52;;;;;;;14.32;10.05;;;;;;;10.79;97.75;100856.53;5000177;28;20088;-78
2022/10/20 03:46:18;;;;;;;15.90;10.18;;;;;;;10.85;97.44;100855.09;4999733;28;20085;-78
2022/10/20 03:48:45;;;;;;;12.32;9.45;;;;;;;10.84;97.52;100856.06;4994724;28;20047;-79
2022/10/20 03:51:14;;;;;;;16.30;9.52;;;;;;;10.81;97.58;100857.19;4985478;28;20465;-79
2022/10/20 03:53:40;;;;;;;16.38;9.68;;;;;;;10.90;97.11;100844.97;4979893;28;20121;-78
2022/10/20 03:56:16;;;;;;;14.70;9.65;;;;;;;10.86;97.29;100854.94;4979123;28;20085;-79
2022/10/20 03:58:43;;;;;;;15.38;9.20;;;;;;;10.80;97.39;100829.38;4976110;28;20107;-79
2022/10/20 04:01:16;;;;;;;14.35;10.13;;;;;;;10.84;96.86;100835.94;4979976;28;20089;-79
2022/10/20 04:03:43;;;;;;;16.27;9.75;;;;;;;10.81;97.30;100846.72;4980911;28;20483;-80
2022/10/20 04:06:10;;;;;;;16.88;9.70;;;;;;;10.77;97.29;100853.22;5001816;28;20046;-80
2022/10/20 04:08:37;;;;;;;13.90;9.15;;;;;;;10.74;97.38;100861.38;5003808;28;20081;-79
2022/10/20 04:11:03;;;;;;;17.48;9.52;;;;;;;10.71;97.48;100856.47;5006598;28;20074;-80
2022/10/20 04:13:31;;;;;;;12.98;9.35;;;;;;;10.69;97.67;100845.31;5007000;28;20081;-79
2022/10/20 04:15:58;;;;;;;16.90;10.95;;;;;;;10.73;97.44;100822.28;4996169;28;20074;-80
2022/10/20 04:18:25;;;;;;;12.82;9.38;;;;;;;10.61;97.37;100821.69;4980362;28;20047;-80
2022/10/20 04:20:52;;;;;;;16.17;9.27;;;;;;;10.66;97.82;100834.31;4983249;28;20078;-80
2022/10/20 04:23:18;;;;;;;12.45;9.40;;;;;;;10.72;97.48;100821.47;4982492;28;20047;-80
2022/10/20 04:25:47;;;;;;;16.27;9.40;;;;;;;10.71;97.15;100814.59;4982194;28;20126;-79
2022/10/20 04:28:14;;;;;;;13.15;9.30;;;;;;;10.73;97.18;100820.47;4980355;28;20412;-80
2022/10/20 04:30:43;;;;;;;12.68;8.80;;;;;;;10.69;97.43;100794.75;4981900;28;20081;-79
2022/10/20 04:33:10;;;;;;;14.55;10.00;;;;;;;10.63;97.65;100801.44;4974236;28;20110;-79
2022/10/20 04:35:36;;;;;;;16.92;9.38;;;;;;;10.69;97.62;100800.00;4979023;28;20126;-79
2022/10/20 04:38:03;;;;;;;16.98;9.82;;;;;;;10.67;97.26;100796.72;4978840;28;20068;-79
2022/10/20 04:40:30;;;;;;;15.32;9.15;;;;;;;10.66;97.36;100800.31;4977441;28;20472;-79
2022/10/20 04:43:01;;;;;;;16.70;9.55;;;;;;;10.70;97.56;100789.38;4976081;28;20069;-78
2022/10/20 04:45:28;;;;;;;14.90;9.63;;;;;;;10.69;96.95;100787.75;4975576;28;20154;-77
2022/10/20 04:47:56;;;;;;;13.13;9.45;;;;;;;10.76;96.64;100793.19;4977786;28;20089;-79
2022/10/20 04:50:23;;;;;;;12.98;9.30;;;;;;;10.77;96.72;100787.78;4975920;28;20047;-79
2022/10/20 04:52:50;;;;;;;15.32;9.35;;;;;;;10.73;96.89;100786.47;4976323;28;20079;-77
2022/10/20 04:55:17;;;;;;;13.05;9.45;;;;;;;10.75;96.51;100781.91;4975959;28;20051;-80
2022/10/20 04:57:43;;;;;;;15.32;9.63;;;;;;;10.75;96.84;100768.00;4976829;28;20051;-79
2022/10/20 05:00:13;;;;;;;19.10;10.30;;;;;;;10.70;96.75;100765.81;4978437;28;20138;-79
2022/10/20 05:02:39;;;;;;;16.08;10.30;;;;;;;10.72;96.90;100769.13;4977150;28;20146;-79
2022/10/20 05:05:08;;;;;;;14.73;9.40;;;;;;;10.70;96.55;100760.59;4978586;28;20449;-79
2022/10/20 05:07:35;;;;;;;14.07;9.98;;;;;;;10.72;96.39;100749.97;4980722;28;20055;-80
2022/10/20 05:10:02;;;;;;;13.23;9.25;;;;;;;10.77;96.14;100745.91;4976283;28;20129;-81
2022/10/20 05:12:28;;;;;;;14.45;9.90;;;;;;;10.76;96.43;100752.13;4976191;28;20146;-79
2022/10/20 05:14:55;;;;;;;16.95;9.18;;;;;;;10.76;96.00;100751.31;4991028;28;20046;-80
2022/10/20 05:17:21;;;;;;;14.00;9.48;;;;;;;10.73;96.14;100755.06;4979711;28;20513;-79
2022/10/20 05:19:48;;;;;;;12.90;8.90;;;;;;;10.80;95.39;100745.63;4975907;28;20075;-80
2022/10/20 05:22:16;;;;;;;11.20;8.52;;;;;;;10.74;95.56;100724.47;4988910;28;20050;-80
2022/10/20 05:24:43;;;;;;;17.65;9.02;;;;;;;10.75;95.38;100732.16;4998093;28;20121;-80
2022/10/20 05:27:09;;;;;;;16.75;9.13;;;;;;;10.76;95.69;100725.13;4993906;28;20125;-78
2022/10/20 05:29:36;;;;;;;15.65;9.45;;;;;;;10.79;95.68;100727.44;4953992;29;20134;-77
2022/10/20 05:32:02;;;;;;;16.45;9.52;;;;;;;10.79;95.42;100723.03;4979394;28;20140;-76
2022/10/20 05:34:29;;;;;;;12.05;9.02;;;;;;;10.75;95.46;100716.47;4954433;28;20079;-77
2022/10/20 05:37:00;;;;;;;14.27;9.45;;;;;;;10.78;95.18;100720.56;4967441;28;20660;-77
2022/10/20 05:39:28;;;;;;;11.93;9.82;;;;;;;10.84;95.39;100712.91;4976506;28;20054;-77
2022/10/20 05:41:55;;;;;;;15.63;9.95;;;;;;;10.83;95.31;100716.50;4977331;28;20101;-77
2022/10/20 05:44:22;;;;;;;13.07;9.40;;;;;;;10.82;95.10;100727.13;4989994;28;20058;-77
2022/10/20 05:46:48;;;;;;;14.77;9.30;;;;;;;10.84;95.04;100719.94;4974571;28;20046;-78
2022/10/20 05:49:16;;;;;;;18.85;9.98;;;;;;;10.74;95.23;100711.38;4989718;28;20141;-77
2022/10/20 05:51:44;;;;;;;16.67;9.77;;;;;;;10.80;95.24;100713.38;4991285;28;20082;-78
2022/10/20 05:54:12;;;;;;;18.23;9.55;;;;;;;10.74;95.64;100706.97;4992778;28;20061;-77
2022/10/20 05:56:40;;;;;;;16.98;9.40;;;;;;;10.76;95.42;100697.16;4990696;28;20069;-77
2022/10/20 05:59:07;;;;;;;20.00;9.65;;;;;;;10.78;95.50;100695.22;4972594;28;20134;-77
2022/10/20 06:01:46;;;;;;;16.35;9.07;;;;;;;10.72;95.53;100703.69;4983316;28;20050;-77
2022/10/20 06:04:14;;;;;;;17.77;9.50;;;;;;;10.73;95.51;100696.66;4990803;28;20065;-76
2022/10/20 06:06:40;;;;;;;17.65;10.48;;;;;;;10.71;95.77;100704.66;4992653;28;20065;-78
2022/10/20 06:09:09;;;;;;;21.95;9.60;;;;;;;10.72;95.89;100706.31;4983523;28;20042;-78
2022/10/20 06:11:36;;;;;;;18.88;9.75;;;;;;;10.67;95.97;100707.75;4993921;28;20053;-79
2022/10/20 06:14:04;;;;;;;16.88;9.85;;;;;;;10.74;95.69;100703.53;4978033;28;20407;-77
2022/10/20 06:16:32;;;;;;;12.90;9.38;;;;;;;10.71;95.95;100709.06;4975713;28;20133;-78
2022/10/20 06:18:58;;;;;;;20.67;10.43;;;;;;;10.74;96.01;100709.59;4986971;28;20072;-77
2022/10/20 06:21:28;;;;;;;18.50;10.85;;;;;;;10.69;95.95;100722.31;4990690;28;20046;-78
2022/10/20 06:23:55;;;;;;;18.67;10.80;;;;;;;10.72;96.25;100726.41;4979614;28;20429;-79
2022/10/20 06:26:23;;;;;;;14.02;10.00;;;;;;;10.75;96.20;100724.31;4972798;28;20137;-77
2022/10/20 06:28:52;;;;;;;16.38;10.27;;;;;;;10.76;96.28;100725.13;4986876;28;20046;-77
2022/10/20 06:31:23;;;;;;;17.15;10.02;;;;;;;10.67;96.00;100708.56;5014300;23;20054;-76
2022/10/20 06:33:51;;;;;;;14.82;10.18;;;;;;;10.82;95.74;100720.09;5000358;28;20117;-80
2022/10/20 06:36:20;;;;;;;19.52;10.48;;;;;;;10.86;95.89;100728.47;5003780;28;20046;-80
2022/10/20 06:38:47;;;;;;;19.85;10.23;;;;;;;10.84;95.43;100719.94;4997602;28;20080;-79
2022/10/20 06:41:15;;;;;;;13.80;9.73;;;;;;;10.87;95.93;100735.34;4998106;28;20134;-79
2022/10/20 06:43:43;;;;;;;20.65;10.27;;;;;;;10.89;95.61;100734.19;4977539;28;20478;-79
2022/10/20 06:46:13;;;;;;;17.35;10.38;;;;;;;10.88;95.63;100732.53;4967210;28;20074;-79
2022/10/20 06:48:42;;;;;;;20.55;9.82;;;;;;;10.88;95.86;100719.47;4975282;28;20075;-80
2022/10/20 06:51:11;;;;;;;17.67;10.80;;;;;;;10.94;95.31;100715.41;4986618;28;20074;-79
2022/10/20 06:53:39;;;;;;;16.80;9.82;;;;;;;10.96;95.36;100716.06;4983376;28;20118;-79
2022/10/20 06:56:07;;;;;;;12.57;9.75;;;;;;;10.97;95.11;100713.28;4973813;28;20066;-79
2022/10/20 06:58:35;;;;;;;14.15;9.88;;;;;;;10.98;95.41;100725.41;4969395;28;20102;-80
2022/10/20 07:01:04;;;;;;;17.00;10.85;;;;;;;11.04;95.34;100725.75;4967275;28;20058;-79
2022/10/20 07:03:33;;;;;;;22.05;10.93;;;;;;;11.07;95.17;100725.44;4976331;28;20114;-79
2022/10/20 07:06:01;;;;;;;15.52;10.40;;;;;;;11.11;94.81;100735.44;4985213;28;20223;-80
2022/10/20 07:08:29;;;;;;;17.98;10.85;;;;;;;11.10;95.00;100741.66;4973511;28;20153;-78
2022/10/20 07:11:00;;;;;;;17.38;10.35;;;;;;;11.13;94.84;100743.16;4978563;28;20146;-78
2022/10/20 07:13:27;;;;;;;15.57;10.15;;;;;;;11.21;94.92;100756.28;4982200;28;20066;-79
2022/10/20 07:15:54;;;;;;;20.50;10.52;;;;;;;11.20;95.27;100752.84;4983439;28;20374;-79
2022/10/20 07:18:21;;;;;;;21.77;11.27;;;;;;;11.14;95.12;100737.75;4982526;28;20062;-80
2022/10/20 07:20:48;;;;;;;14.15;10.30;;;;;;;11.15;95.79;100725.50;4969629;28;20539;-80
2022/10/20 07:23:16;;;;;;;15.57;10.73;;;;;;;11.16;95.66;100729.75;4964382;28;20138;-78
2022/10/20 07:25:43;;;;;;;16.85;10.60;;;;;;;11.17;95.45;100716.50;4966446;28;20138;-79
2022/10/20 07:28:09;;;;;;;25.17;10.57;;;;;;;11.21;95.32;100707.34;4979633;28;20082;-78
2022/10/20 07:30:39;;;;;;;16.67;11.20;;;;;;;11.23;95.23;100718.50;4987964;28;20087;-78
2022/10/20 07:33:06;;;;;;;17.48;11.25;;;;;;;11.27;95.17;100708.50;4978606;28;20082;-79
2022/10/20 07:35:33;;;;;;;15.60;11.07;;;;;;;11.30;95.18;100714.25;4991192;28;20051;-80
2022/10/20 07:38:02;;;;;;;13.98;10.27;;;;;;;11.34;95.49;100714.78;4986472;28;20125;-79
2022/10/20 07:40:30;;;;;;;18.05;11.05;;;;;;;11.39;95.23;100719.50;4972059;28;20111;-79
2022/10/20 07:42:57;;;;;;;14.40;10.43;;;;;;;11.43;95.23;100736.53;4975322;28;20047;-78
2022/10/20 07:45:24;;;;;;;15.52;10.43;;;;;;;11.46;94.78;100731.00;4984505;28;20139;-80
2022/10/20 07:47:53;;;;;;;17.50;11.70;;;;;;;11.54;94.83;100734.47;4982227;28;20138;-76
2022/10/20 07:50:19;;;;;;;17.02;11.75;;;;;;;11.58;94.78;100725.31;4971228;28;20129;-79
2022/10/20 07:52:51;;;;;;;15.75;10.82;;;;;;;11.62;94.97;100744.16;4969575;28;20110;-79
2022/10/20 07:55:18;;;;;;;16.37;11.07;;;;;;;11.67;94.75;100727.94;4968843;28;20055;-78
2022/10/20 07:57:47;;;;;;;22.30;11.68;;;;;;;11.78;94.92;100732.91;4976130;28;20066;-79
2022/10/20 08:00:14;;;;;;;17.08;11.02;;;;;;;11.76;94.90;100721.75;4979135;28;20115;-79
2022/10/20 08:02:40;;;;;;;21.25;11.60;;;;;;;11.81;94.26;100727.34;4985405;28;20051;-79
2022/10/20 08:05:08;;;;;;;17.67;11.02;;;;;;;11.90;94.14;100713.25;4969576;28;20074;-79
2022/10/20 08:07:35;;;;;;;15.50;11.75;;;;;;;11.88;94.00;100717.84;4971127;28;20089;-79
2022/10/20 08:10:02;;;;;;;17.85;12.13;;;;;;;11.96;93.83;100725.72;4986391;28;20532;-79
2022/10/20 08:12:28;;;;;;;16.02;11.45;;;;;;;12.01;93.98;100720.81;4979829;28;20065;-80
2022/10/20 08:14:56;;;;;;;16.27;10.90;;;;;;;11.98;93.46;100720.31;4988802;28;20073;-79
2022/10/20 08:17:23;;;;;;;15.45;10.80;;;;;;;12.07;93.50;100721.97;4986780;28;20058;-79
2022/10/20 08:19:49;;;;;;;14.95;11.45;;;;;;;11.97;93.27;100719.50;4971775;28;20201;-79
2022/10/20 08:22:18;;;;;;;16.73;11.40;;;;;;;12.05;93.33;100731.78;4978995;28;20134;-79
2022/10/20 08:24:44;;;;;;;16.50;10.68;;;;;;;11.99;93.35;100732.44;4983203;28;20053;-79
2022/10/20 08:27:11;;;;;;;15.82;11.15;;;;;;;11.99;93.05;100730.63;4972442;28;20048;-79
2022/10/20 08:29:38;;;;;;;14.35;11.00;;;;;;;12.16;93.14;100739.34;4971724;28;20112;-80
2022/10/20 08:32:06;;;;;;;17.38;11.13;;;;;;;12.23;92.80;100729.84;4984396;28;20114;-78
2022/10/20 08:34:32;;;;;;;18.13;10.52;;;;;;;12.18;92.64;100725.09;4976480;28;20054;-78
2022/10/20 08:36:59;;;;;;;17.10;10.75;;;;;;;12.26;92.62;100719.03;4981832;28;20115;-79
2022/10/20 08:39:26;;;;;;;15.52;10.98;;;;;;;12.21;92.44;100727.38;4967553;29;20134;-79
2022/10/20 08:41:54;;;;;;;18.13;11.05;;;;;;;12.19;92.22;100724.09;4968093;29;20079;-79
2022/10/20 08:44:25;;;;;;;18.23;11.73;;;;;;;12.17;92.19;100736.56;4965987;29;20111;-78
2022/10/20 08:46:55;;;;;;;20.05;12.48;;;;;;;12.17;92.25;100726.06;4968498;28;20422;-78
2022/10/20 08:49:28;;;;;;;15.40;10.95;;;;;;;12.23;92.39;100720.16;4967914;29;20047;-79
2022/10/20 08:51:55;;;;;;;16.50;11.52;;;;;;;12.21;92.55;100719.50;4969637;28;20127;-79
2022/10/20 08:54:22;;;;;;;16.05;10.90;;;;;;;12.19;92.26;100715.41;4987010;28;20086;-79
2022/10/20 08:56:48;;;;;;;16.33;11.15;;;;;;;12.07;92.33;100724.59;4987467;28;20142;-79
2022/10/20 08:59:26;;;;;;;15.02;11.10;;;;;;;12.08;92.98;100724.41;4987607;28;20493;-80
2022/10/20 09:01:54;;;;;;;16.02;10.77;;;;;;;12.02;92.93;100716.38;4986940;28;20087;-79
2022/10/20 09:04:24;;;;;;;23.67;12.02;;;;;;;11.96;93.50;100712.59;4981413;28;20047;-80
2022/10/20 09:06:58;;;;;;;18.23;11.00;;;;;;;12.03;93.33;100708.34;4968817;29;20106;-80
2022/10/20 09:09:27;;;;;;;15.48;11.38;;;;;;;12.04;93.49;100704.75;4968483;28;20061;-80
2022/10/20 09:12:04;;;;;;;15.27;11.13;;;;;;;12.04;93.26;100714.41;4986132;28;20444;-79
2022/10/20 09:14:34;;;;;;;16.52;11.27;;;;;;;12.10;93.49;100711.97;4987648;28;20085;-79
2022/10/20 09:17:01;;;;;;;13.55;11.10;;;;;;;12.18;93.32;100714.59;4985527;28;20050;-78
2022/10/20 09:19:30;;;;;;;17.35;11.15;;;;;;;12.19;92.46;100713.59;4974856;28;20550;-79
2022/10/20 09:21:58;;;;;;;17.10;11.13;;;;;;;12.19;92.60;100702.28;4988305;28;20085;-79
2022/10/20 09:24:28;;;;;;;15.63;11.13;;;;;;;12.19;92.76;100703.13;4978584;28;20140;-79
2022/10/20 09:26:55;;;;;;;20.88;11.05;;;;;;;12.22;92.37;100688.84;4978621;28;20065;-79
2022/10/20 09:29:33;;;;;;;18.20;10.95;;;;;;;12.26;92.71;100680.50;4982938;28;20470;-79
2022/10/20 09:32:00;;;;;;;19.30;11.63;;;;;;;12.28;92.81;100675.06;4989975;28;20082;-81
2022/10/20 09:34:30;;;;;;;17.83;11.63;;;;;;;12.26;92.54;100688.34;4970674;28;20066;-80
2022/10/20 09:37:03;;;;;;;21.60;11.82;;;;;;;12.24;92.62;100669.34;4967006;29;20059;-79
2022/10/20 09:39:34;;;;;;;14.00;10.95;;;;;;;12.29;92.50;100682.75;4966111;28;20047;-79
2022/10/20 09:42:03;;;;;;;13.27;11.07;;;;;;;12.40;92.85;100686.03;4966442;28;20079;-80
2022/10/20 09:44:33;;;;;;;14.40;10.65;;;;;;;12.44;92.70;100682.09;4966201;28;20062;-79
2022/10/20 09:47:01;;;;;;;16.60;11.38;;;;;;;12.51;92.52;100685.69;4968673;29;20101;-79
2022/10/20 09:49:32;;;;;;;18.27;11.85;;;;;;;12.57;92.30;100696.34;4969894;28;20055;-78
2022/10/20 09:52:00;;;;;;;23.17;11.68;;;;;;;12.57;93.03;100706.00;4974817;29;20051;-79
2022/10/20 09:54:28;;;;;;;14.90;11.25;;;;;;;12.57;93.95;100698.13;4975422;29;20039;-79
2022/10/20 09:57:04;;;;;;;15.90;11.35;;;;;;;12.56;94.67;100699.13;4970441;29;20082;-79
2022/10/20 09:59:35;;;;;;;17.75;11.80;;;;;;;12.44;94.93;100696.03;4967088;29;20074;-80
2022/10/20 10:02:04;;;;;;;14.90;11.68;;;;;;;12.39;95.14;100703.56;4968369;29;20051;-80
2022/10/20 10:04:35;;;;;;;14.57;11.70;;;;;;;12.38;96.67;100709.81;4968008;29;20079;-79
2022/10/20 10:07:02;;;;;;;16.92;13.05;;;;;;;12.39;98.49;100714.06;4968973;29;20506;-79
2022/10/20 10:09:33;;;;;;;17.88;12.85;;;;;;;12.29;98.71;100703.75;4965869;29;20130;-79
2022/10/20 10:12:03;;;;;;;16.50;12.82;;;;;;;12.30;99.14;100705.38;4966649;29;20055;-80
2022/10/20 10:14:33;;;;;;;20.48;12.85;;;;;;;12.43;99.80;100717.19;4968059;29;20070;-80
2022/10/20 10:17:00;;;;;;;16.67;13.48;;;;;;;12.47;100.00;100729.00;4966771;29;20429;-79
2022/10/20 10:19:31;;;;;;;18.10;12.52;;;;;;;12.53;100.00;100715.22;4966626;29;20293;-79
2022/10/20 10:22:03;;;;;;;22.13;14.10;;;;;;;12.58;100.00;100713.72;4967728;29;20109;-80
2022/10/20 10:24:38;;;;;;;17.83;13.55;;;;;;;12.58;100.00;100712.91;4966741;29;20090;-78
2022/10/20 10:27:06;;;;;;;18.35;12.98;;;;;;;12.58;100.00;100707.66;4966885;29;20070;-79
2022/10/20 10:29:35;;;;;;;21.52;15.15;;;;;;;12.52;100.00;100697.81;4965503;29;20086;-79
2022/10/20 10:32:03;;;;;;;17.65;13.80;;;;;;;12.51;100.00;100701.44;4967258;29;20054;-80
2022/10/20 10:34:41;;;;;;;25.08;13.45;;;;;;;12.50;100.00;100691.91;4966947;29;20121;-80
2022/10/20 10:37:12;;;;;;;21.50;14.93;;;;;;;12.52;100.00;100697.81;4966882;29;20105;-79
2022/10/20 10:39:38;;;;;;;21.30;15.23;;;;;;;12.41;100.00;100693.72;4966593;29;20051;-80
2022/10/20 10:42:24;;;;;;;22.45;15.15;;;;;;;12.40;100.00;100699.16;4965716;29;20133;-79
2022/10/20 10:45:00;;;;;;;20.88;14.98;;;;;;;12.37;100.00;100667.97;4966134;29;20059;-80
2022/10/20 10:47:45;;;;;;;23.00;15.57;;;;;;;12.28;100.00;100639.16;4966708;29;20078;-80
2022/10/20 10:50:34;;;;;;;21.13;16.30;;;;;;;12.25;100.00;100667.53;4965888;29;20054;-80
2022/10/20 10:53:18;;;;;;;23.27;14.93;;;;;;;12.28;100.00;100664.56;4967013;29;20090;-80
2022/10/20 10:55:53;;;;;;;25.75;16.73;;;;;;;12.25;100.00;100663.09;4966364;29;20054;-79
2022/10/20 10:58:31;;;;;;;23.35;16.20;;;;;;;12.22;100.00;100658.19;4965782;28;20086;-81
2022/10/20 11:01:06;;;;;;;21.15;16.13;;;;;;;12.22;100.00;100668.69;4966332;29;20115;-80
2022/10/20 11:03:48;;;;;;;28.65;16.13;;;;;;;12.29;100.00;100674.06;4966398;29;20550;-79
2022/10/20 11:06:22;;;;;;;21.70;16.55;;;;;;;12.30;100.00;100676.50;4966080;29;20115;-79
2022/10/20 11:09:15;;;;;;;22.33;15.57;;;;;;;12.29;100.00;100698.50;4965479;29;20082;-79
2022/10/20 11:11:51;;;;;;;23.55;16.85;;;;;;;12.27;100.00;100705.75;4965986;29;20051;-79
2022/10/20 11:14:38;;;;;;;24.70;16.85;;;;;;;12.20;100.00;100699.50;4967697;28;20079;-78
2022/10/20 11:17:21;;;;;;;22.90;17.40;;;;;;;12.17;100.00;100705.09;4966973;29;20086;-80
2022/10/20 11:20:03;;;;;;;24.02;17.02;;;;;;;12.22;100.00;100701.97;4966435;29;20083;-80